DLH178 EKCH-EDDP
Flight info
| Callsign | DLH178 |
|---|---|
| Flight time | 0h 48m |
| Altitude | 36000 |
| Route | SALLO M736 MAG Z20 KENIG T959 KOJEC KOJEC1R |
| Aircraft | A320/M-SDE3FGHIRWY/LB1 |
Departure
| Time | 2026-05-07 18:17 |
|---|---|
| Airport | Copenhagen Kastrup Airport (EKCH) |
Arrival
| Time | 2026-05-07 19:05 |
|---|---|
| Airport | Leipzig/Halle Airport (EDDP) |
| Time | Latitude | Longitude | Altitude | Speed | Heading |
|---|---|---|---|---|---|
| 2026-05-07 17:54 | 55.62734 | 12.64273 | 24 ft | 0 kts | 302° |
| 2026-05-07 18:06 | 55.62729 | 12.64288 | 24 ft | 3 kts | 302° |
| 2026-05-07 18:06 | 55.62715 | 12.64320 | 24 ft | 4 kts | 330° |
| 2026-05-07 18:06 | 55.62691 | 12.64328 | 27 ft | 4 kts | 17° |
| 2026-05-07 18:07 | 55.62681 | 12.64322 | 25 ft | 1 kts | 21° |
| 2026-05-07 18:07 | 55.62680 | 12.64322 | 24 ft | 0 kts | 21° |
| 2026-05-07 18:08 | 55.62682 | 12.64328 | 24 ft | 1 kts | 55° |
| 2026-05-07 18:09 | 55.62678 | 12.64337 | 26 ft | 1 kts | 119° |
| 2026-05-07 18:09 | 55.62674 | 12.64336 | 27 ft | 0 kts | 165° |
| 2026-05-07 18:09 | 55.62671 | 12.64330 | 27 ft | 1 kts | 209° |
| 2026-05-07 18:09 | 55.62656 | 12.64312 | 24 ft | 0 kts | 211° |
| 2026-05-07 18:11 | 55.62655 | 12.64311 | 24 ft | 1 kts | 211° |
| 2026-05-07 18:12 | 55.62624 | 12.64279 | 25 ft | 7 kts | 211° |
| 2026-05-07 18:12 | 55.62614 | 12.64267 | 24 ft | 0 kts | 211° |
| 2026-05-07 18:12 | 55.62606 | 12.64259 | 24 ft | 2 kts | 212° |
| 2026-05-07 18:12 | 55.62597 | 12.64249 | 26 ft | 1 kts | 212° |
| 2026-05-07 18:13 | 55.62577 | 12.64225 | 24 ft | 5 kts | 214° |
| 2026-05-07 18:13 | 55.62553 | 12.64202 | 24 ft | 3 kts | 199° |
| 2026-05-07 18:13 | 55.62514 | 12.64219 | 25 ft | 13 kts | 141° |
| 2026-05-07 18:13 | 55.62466 | 12.64347 | 25 ft | 12 kts | 126° |
| 2026-05-07 18:14 | 55.62405 | 12.64440 | 24 ft | 12 kts | 164° |
| 2026-05-07 18:14 | 55.62318 | 12.64418 | 23 ft | 14 kts | 194° |
| 2026-05-07 18:14 | 55.62215 | 12.64356 | 22 ft | 17 kts | 204° |
| 2026-05-07 18:14 | 55.62114 | 12.64273 | 25 ft | 15 kts | 205° |
| 2026-05-07 18:15 | 55.62016 | 12.64189 | 25 ft | 17 kts | 206° |
| 2026-05-07 18:15 | 55.61906 | 12.64098 | 24 ft | 18 kts | 202° |
| 2026-05-07 18:15 | 55.61789 | 12.64080 | 24 ft | 15 kts | 174° |
| 2026-05-07 18:15 | 55.61678 | 12.64090 | 28 ft | 16 kts | 183° |
| 2026-05-07 18:16 | 55.61579 | 12.63999 | 30 ft | 18 kts | 220° |
| 2026-05-07 18:16 | 55.61476 | 12.63838 | 27 ft | 23 kts | 221° |
| 2026-05-07 18:16 | 55.61246 | 12.63489 | 26 ft | 76 kts | 221° |
| 2026-05-07 18:16 | 55.60683 | 12.62621 | 29 ft | 136 kts | 220° |
| 2026-05-07 18:17 | 55.59892 | 12.61410 | 387 ft | 150 kts | 220° |
| 2026-05-07 18:17 | 55.59095 | 12.60194 | 1002 ft | 150 kts | 223° |
| 2026-05-07 18:17 | 55.58286 | 12.58947 | 1436 ft | 164 kts | 223° |
| 2026-05-07 18:17 | 55.57360 | 12.57503 | 1637 ft | 194 kts | 223° |
| 2026-05-07 18:18 | 55.56238 | 12.55925 | 1943 ft | 221 kts | 210° |
| 2026-05-07 18:18 | 55.54759 | 12.54750 | 2363 ft | 246 kts | 201° |
| 2026-05-07 18:18 | 55.53077 | 12.53722 | 3023 ft | 262 kts | 198° |
| 2026-05-07 18:18 | 55.51324 | 12.52734 | 3951 ft | 267 kts | 198° |
| 2026-05-07 18:19 | 55.49542 | 12.51732 | 4935 ft | 271 kts | 198° |
| 2026-05-07 18:19 | 55.47735 | 12.50724 | 5875 ft | 274 kts | 194° |
| 2026-05-07 18:19 | 55.45832 | 12.50540 | 6797 ft | 277 kts | 169° |
| 2026-05-07 18:19 | 55.44046 | 12.51773 | 7675 ft | 279 kts | 143° |
| 2026-05-07 18:20 | 55.42618 | 12.54012 | 8582 ft | 280 kts | 134° |
| 2026-05-07 18:20 | 55.41215 | 12.56405 | 9506 ft | 283 kts | 134° |
| 2026-05-07 18:20 | 55.39774 | 12.58857 | 10366 ft | 288 kts | 135° |
| 2026-05-07 18:20 | 55.38296 | 12.61364 | 10688 ft | 311 kts | 135° |
| 2026-05-07 18:21 | 55.36680 | 12.64101 | 10945 ft | 335 kts | 135° |
| 2026-05-07 18:21 | 55.34940 | 12.67033 | 11140 ft | 358 kts | 135° |
| 2026-05-07 18:21 | 55.33085 | 12.70149 | 11277 ft | 380 kts | 135° |
| 2026-05-07 18:21 | 55.31139 | 12.73415 | 11740 ft | 391 kts | 135° |
| 2026-05-07 18:22 | 55.29159 | 12.76731 | 12379 ft | 396 kts | 135° |
| 2026-05-07 18:22 | 55.28485 | 12.77859 | 12603 ft | 398 kts | 136° |
| 2026-05-07 18:22 | 55.25114 | 12.83480 | 13688 ft | 406 kts | 136° |
| 2026-05-07 18:22 | 55.23050 | 12.86913 | 14297 ft | 411 kts | 136° |
| 2026-05-07 18:23 | 55.20966 | 12.90375 | 14879 ft | 415 kts | 136° |
| 2026-05-07 18:23 | 55.18863 | 12.93868 | 15450 ft | 419 kts | 136° |
| 2026-05-07 18:23 | 55.16742 | 12.97390 | 16022 ft | 423 kts | 136° |
| 2026-05-07 18:23 | 55.14600 | 13.00945 | 16588 ft | 426 kts | 137° |
| 2026-05-07 18:24 | 55.12443 | 13.04518 | 17143 ft | 429 kts | 137° |
| 2026-05-07 18:24 | 55.10267 | 13.08105 | 17686 ft | 432 kts | 137° |
| 2026-05-07 18:24 | 55.08074 | 13.11717 | 18204 ft | 435 kts | 137° |
| 2026-05-07 18:24 | 55.05865 | 13.15348 | 18682 ft | 438 kts | 138° |
| 2026-05-07 18:25 | 55.04283 | 13.17542 | 18961 ft | 439 kts | 147° |
| 2026-05-07 18:25 | 55.01526 | 13.19828 | 19375 ft | 441 kts | 163° |
| 2026-05-07 18:25 | 54.98507 | 13.20706 | 19776 ft | 442 kts | 180° |
| 2026-05-07 18:25 | 54.95456 | 13.20078 | 20153 ft | 443 kts | 196° |
| 2026-05-07 18:26 | 54.92513 | 13.18480 | 20523 ft | 444 kts | 199° |
| 2026-05-07 18:26 | 54.89569 | 13.16814 | 20876 ft | 446 kts | 199° |
| 2026-05-07 18:26 | 54.86603 | 13.15123 | 21214 ft | 448 kts | 199° |
| 2026-05-07 18:26 | 54.83639 | 13.13435 | 21551 ft | 450 kts | 199° |
| 2026-05-07 18:27 | 54.80652 | 13.11747 | 21882 ft | 452 kts | 199° |
| 2026-05-07 18:27 | 54.77653 | 13.10065 | 22198 ft | 454 kts | 199° |
| 2026-05-07 18:27 | 54.74779 | 13.08464 | 22489 ft | 456 kts | 199° |
| 2026-05-07 18:27 | 54.71753 | 13.06780 | 22792 ft | 457 kts | 199° |
| 2026-05-07 18:28 | 54.68719 | 13.05093 | 23081 ft | 459 kts | 199° |
| 2026-05-07 18:28 | 54.65672 | 13.03400 | 23360 ft | 461 kts | 199° |
| 2026-05-07 18:28 | 54.62613 | 13.01701 | 23635 ft | 462 kts | 199° |
| 2026-05-07 18:28 | 54.59544 | 13.00000 | 23865 ft | 464 kts | 199° |
| 2026-05-07 18:29 | 54.56470 | 12.98302 | 24080 ft | 465 kts | 199° |
| 2026-05-07 18:29 | 54.53382 | 12.96602 | 24277 ft | 467 kts | 199° |
| 2026-05-07 18:29 | 54.50288 | 12.94899 | 24474 ft | 468 kts | 199° |
| 2026-05-07 18:29 | 54.47181 | 12.93187 | 24655 ft | 469 kts | 199° |
| 2026-05-07 18:30 | 54.44078 | 12.91474 | 24897 ft | 468 kts | 199° |
| 2026-05-07 18:30 | 54.40975 | 12.89768 | 25158 ft | 467 kts | 199° |
| 2026-05-07 18:30 | 54.37881 | 12.88073 | 25424 ft | 467 kts | 198° |
| 2026-05-07 18:30 | 54.34790 | 12.86388 | 25685 ft | 466 kts | 198° |
| 2026-05-07 18:31 | 54.31706 | 12.84707 | 25959 ft | 465 kts | 198° |
| 2026-05-07 18:31 | 54.28626 | 12.83023 | 26237 ft | 464 kts | 198° |
| 2026-05-07 18:31 | 54.25551 | 12.81341 | 26513 ft | 464 kts | 198° |
| 2026-05-07 18:31 | 54.22481 | 12.79668 | 26795 ft | 463 kts | 198° |
| 2026-05-07 18:32 | 54.19410 | 12.78003 | 27091 ft | 462 kts | 198° |
| 2026-05-07 18:32 | 54.16348 | 12.76348 | 27388 ft | 461 kts | 198° |
| 2026-05-07 18:32 | 54.13283 | 12.74762 | 27696 ft | 460 kts | 194° |
| 2026-05-07 18:32 | 54.10196 | 12.73653 | 28000 ft | 460 kts | 192° |
| 2026-05-07 18:33 | 54.07017 | 12.72550 | 28120 ft | 459 kts | 192° |
| 2026-05-07 18:33 | 54.00819 | 12.70392 | 28131 ft | 458 kts | 192° |
| 2026-05-07 18:34 | 53.94584 | 12.68233 | 28133 ft | 457 kts | 192° |
| 2026-05-07 18:34 | 53.88356 | 12.66090 | 28131 ft | 457 kts | 192° |
| 2026-05-07 18:35 | 53.82129 | 12.63952 | 28128 ft | 457 kts | 192° |
| 2026-05-07 18:35 | 53.79053 | 12.62895 | 28802 ft | 445 kts | 192° |
| 2026-05-07 18:35 | 53.76036 | 12.61852 | 29450 ft | 439 kts | 192° |
| 2026-05-07 18:35 | 53.73062 | 12.60815 | 30105 ft | 433 kts | 192° |
| 2026-05-07 18:36 | 53.70129 | 12.59786 | 30684 ft | 428 kts | 192° |
| 2026-05-07 18:36 | 53.67239 | 12.58766 | 31259 ft | 422 kts | 192° |
| 2026-05-07 18:36 | 53.64384 | 12.57754 | 31848 ft | 416 kts | 192° |
| 2026-05-07 18:36 | 53.61566 | 12.56750 | 32444 ft | 411 kts | 192° |
| 2026-05-07 18:37 | 53.58789 | 12.55754 | 33058 ft | 405 kts | 192° |
| 2026-05-07 18:37 | 53.56055 | 12.54769 | 33688 ft | 399 kts | 192° |
| 2026-05-07 18:37 | 53.53365 | 12.53795 | 34299 ft | 391 kts | 192° |
| 2026-05-07 18:37 | 53.50726 | 12.52846 | 34829 ft | 384 kts | 192° |
| 2026-05-07 18:38 | 53.48139 | 12.51938 | 35332 ft | 378 kts | 192° |
| 2026-05-07 18:38 | 53.45560 | 12.51053 | 35562 ft | 380 kts | 192° |
| 2026-05-07 18:38 | 53.42966 | 12.50173 | 35783 ft | 381 kts | 192° |
| 2026-05-07 18:38 | 53.40363 | 12.49296 | 35995 ft | 383 kts | 192° |
| 2026-05-07 18:39 | 53.37732 | 12.48417 | 36097 ft | 388 kts | 192° |
| 2026-05-07 18:39 | 53.32349 | 12.46619 | 36114 ft | 401 kts | 192° |
| 2026-05-07 18:40 | 53.26779 | 12.44754 | 36115 ft | 415 kts | 192° |
| 2026-05-07 18:40 | 53.21033 | 12.42829 | 36111 ft | 428 kts | 192° |
| 2026-05-07 18:41 | 53.15123 | 12.40845 | 36105 ft | 439 kts | 192° |
| 2026-05-07 18:41 | 53.09066 | 12.38812 | 36107 ft | 447 kts | 192° |
| 2026-05-07 18:42 | 53.03016 | 12.36783 | 36111 ft | 449 kts | 192° |
| 2026-05-07 18:42 | 52.96873 | 12.34725 | 36106 ft | 449 kts | 192° |
| 2026-05-07 18:43 | 52.90751 | 12.32678 | 36108 ft | 449 kts | 192° |
| 2026-05-07 18:43 | 52.84620 | 12.30632 | 35231 ft | 451 kts | 192° |
| 2026-05-07 18:43 | 52.81606 | 12.29181 | 34413 ft | 451 kts | 204° |
| 2026-05-07 18:44 | 52.78742 | 12.27056 | 33555 ft | 452 kts | 205° |
| 2026-05-07 18:44 | 52.75878 | 12.24909 | 32925 ft | 454 kts | 205° |
| 2026-05-07 18:44 | 52.73000 | 12.22748 | 32311 ft | 455 kts | 205° |
| 2026-05-07 18:44 | 52.70108 | 12.20580 | 31735 ft | 457 kts | 205° |
| 2026-05-07 18:45 | 52.67214 | 12.18408 | 31169 ft | 458 kts | 205° |
| 2026-05-07 18:45 | 52.64313 | 12.16234 | 30612 ft | 459 kts | 205° |
| 2026-05-07 18:45 | 52.61407 | 12.14055 | 30052 ft | 460 kts | 204° |
| 2026-05-07 18:45 | 52.58493 | 12.11879 | 29413 ft | 461 kts | 204° |
| 2026-05-07 18:46 | 52.55564 | 12.09698 | 28788 ft | 463 kts | 205° |
| 2026-05-07 18:46 | 52.52627 | 12.07513 | 28179 ft | 465 kts | 205° |
| 2026-05-07 18:46 | 52.49675 | 12.05322 | 27576 ft | 467 kts | 205° |
| 2026-05-07 18:46 | 52.46713 | 12.03130 | 26993 ft | 469 kts | 204° |
| 2026-05-07 18:47 | 52.43732 | 12.00934 | 26422 ft | 470 kts | 204° |
| 2026-05-07 18:47 | 52.40739 | 11.98730 | 25863 ft | 472 kts | 205° |
| 2026-05-07 18:47 | 52.37741 | 11.96520 | 25309 ft | 474 kts | 205° |
| 2026-05-07 18:47 | 52.34726 | 11.94299 | 24769 ft | 476 kts | 205° |
| 2026-05-07 18:48 | 52.31710 | 11.92080 | 24237 ft | 471 kts | 205° |
| 2026-05-07 18:48 | 52.28787 | 11.89933 | 23708 ft | 447 kts | 205° |
| 2026-05-07 18:48 | 52.26024 | 11.87903 | 23101 ft | 424 kts | 205° |
| 2026-05-07 18:48 | 52.23397 | 11.85979 | 22506 ft | 404 kts | 205° |
| 2026-05-07 18:49 | 52.20890 | 11.84144 | 21914 ft | 390 kts | 205° |
| 2026-05-07 18:49 | 52.18404 | 11.82330 | 21344 ft | 390 kts | 205° |
| 2026-05-07 18:49 | 52.15935 | 11.80530 | 20779 ft | 388 kts | 205° |
| 2026-05-07 18:49 | 52.13471 | 11.78734 | 20221 ft | 387 kts | 205° |
| 2026-05-07 18:50 | 52.11020 | 11.76946 | 19676 ft | 386 kts | 205° |
| 2026-05-07 18:50 | 52.08573 | 11.75163 | 19136 ft | 384 kts | 205° |
| 2026-05-07 18:50 | 52.06132 | 11.73382 | 18618 ft | 383 kts | 205° |
| 2026-05-07 18:50 | 52.03707 | 11.71610 | 18041 ft | 382 kts | 205° |
| 2026-05-07 18:51 | 52.01292 | 11.69843 | 17452 ft | 380 kts | 205° |
| 2026-05-07 18:51 | 51.98883 | 11.68075 | 16871 ft | 379 kts | 205° |
| 2026-05-07 18:51 | 51.96489 | 11.66312 | 16286 ft | 378 kts | 205° |
| 2026-05-07 18:51 | 51.94100 | 11.64542 | 15736 ft | 376 kts | 205° |
| 2026-05-07 18:52 | 51.91758 | 11.62801 | 15193 ft | 375 kts | 205° |
| 2026-05-07 18:52 | 51.89392 | 11.61038 | 14655 ft | 374 kts | 205° |
| 2026-05-07 18:52 | 51.87036 | 11.59278 | 14114 ft | 372 kts | 205° |
| 2026-05-07 18:52 | 51.84689 | 11.57521 | 13557 ft | 371 kts | 205° |
| 2026-05-07 18:53 | 51.82364 | 11.55777 | 13163 ft | 364 kts | 205° |
| 2026-05-07 18:53 | 51.80114 | 11.54086 | 13099 ft | 349 kts | 205° |
| 2026-05-07 18:53 | 51.77928 | 11.52446 | 13105 ft | 345 kts | 205° |
| 2026-05-07 18:53 | 51.75754 | 11.50819 | 13106 ft | 344 kts | 205° |
| 2026-05-07 18:54 | 51.73492 | 11.49608 | 13115 ft | 343 kts | 187° |
| 2026-05-07 18:54 | 51.71139 | 11.49738 | 12798 ft | 338 kts | 166° |
| 2026-05-07 18:54 | 51.69023 | 11.51260 | 12331 ft | 333 kts | 142° |
| 2026-05-07 18:54 | 51.67482 | 11.53960 | 12048 ft | 322 kts | 119° |
| 2026-05-07 18:55 | 51.66458 | 11.57071 | 11904 ft | 307 kts | 115° |
| 2026-05-07 18:55 | 51.65527 | 11.60102 | 11733 ft | 298 kts | 115° |
| 2026-05-07 18:55 | 51.64620 | 11.63075 | 11435 ft | 294 kts | 115° |
| 2026-05-07 18:55 | 51.63718 | 11.66023 | 11096 ft | 292 kts | 115° |
| 2026-05-07 18:56 | 51.62820 | 11.68959 | 10614 ft | 295 kts | 115° |
| 2026-05-07 18:56 | 51.61917 | 11.71906 | 10082 ft | 290 kts | 115° |
| 2026-05-07 18:56 | 51.61031 | 11.74794 | 9554 ft | 286 kts | 115° |
| 2026-05-07 18:56 | 51.60090 | 11.77617 | 9022 ft | 289 kts | 125° |
| 2026-05-07 18:57 | 51.58582 | 11.79757 | 8494 ft | 294 kts | 151° |
| 2026-05-07 18:57 | 51.56618 | 11.80629 | 7979 ft | 297 kts | 178° |
| 2026-05-07 18:57 | 51.54595 | 11.80042 | 7472 ft | 299 kts | 204° |
| 2026-05-07 18:57 | 51.52805 | 11.78348 | 6962 ft | 300 kts | 214° |
| 2026-05-07 18:58 | 51.51079 | 11.76451 | 6479 ft | 300 kts | 214° |
| 2026-05-07 18:58 | 51.49311 | 11.74681 | 5941 ft | 300 kts | 202° |
| 2026-05-07 18:58 | 51.47302 | 11.74061 | 5426 ft | 290 kts | 176° |
| 2026-05-07 18:58 | 51.45424 | 11.74884 | 4910 ft | 275 kts | 148° |
| 2026-05-07 18:59 | 51.44044 | 11.76869 | 4347 ft | 263 kts | 124° |
| 2026-05-07 18:59 | 51.43196 | 11.79393 | 3768 ft | 254 kts | 112° |
| 2026-05-07 18:59 | 51.42554 | 11.81981 | 3227 ft | 247 kts | 106° |
| 2026-05-07 18:59 | 51.42069 | 11.84515 | 3032 ft | 228 kts | 105° |
| 2026-05-07 19:00 | 51.41629 | 11.86927 | 3033 ft | 225 kts | 103° |
| 2026-05-07 19:00 | 51.41519 | 11.89398 | 3035 ft | 223 kts | 84° |
| 2026-05-07 19:00 | 51.41645 | 11.91876 | 3039 ft | 224 kts | 84° |
| 2026-05-07 19:00 | 51.41776 | 11.94321 | 3034 ft | 213 kts | 84° |
| 2026-05-07 19:01 | 51.41900 | 11.96606 | 3026 ft | 199 kts | 84° |
| 2026-05-07 19:01 | 51.42015 | 11.98732 | 3027 ft | 184 kts | 83° |
| 2026-05-07 19:01 | 51.42119 | 12.00728 | 3007 ft | 177 kts | 84° |
| 2026-05-07 19:01 | 51.42214 | 12.02677 | 2853 ft | 173 kts | 84° |
| 2026-05-07 19:02 | 51.42307 | 12.04595 | 2619 ft | 170 kts | 84° |
| 2026-05-07 19:02 | 51.42399 | 12.06482 | 2403 ft | 170 kts | 84° |
| 2026-05-07 19:02 | 51.42490 | 12.08346 | 2153 ft | 170 kts | 84° |
| 2026-05-07 19:02 | 51.42575 | 12.10130 | 1919 ft | 152 kts | 83° |
| 2026-05-07 19:03 | 51.42654 | 12.11776 | 1719 ft | 142 kts | 83° |
| 2026-05-07 19:03 | 51.42728 | 12.13309 | 1522 ft | 138 kts | 83° |
| 2026-05-07 19:03 | 51.42801 | 12.14835 | 1325 ft | 137 kts | 83° |
| 2026-05-07 19:03 | 51.42874 | 12.16355 | 1115 ft | 137 kts | 83° |
| 2026-05-07 19:04 | 51.42947 | 12.17875 | 934 ft | 137 kts | 83° |
| 2026-05-07 19:04 | 51.43016 | 12.19399 | 747 ft | 137 kts | 83° |
| 2026-05-07 19:04 | 51.43098 | 12.20917 | 546 ft | 136 kts | 82° |
| 2026-05-07 19:04 | 51.43160 | 12.22404 | 432 ft | 127 kts | 77° |
| 2026-05-07 19:05 | 51.43233 | 12.23553 | 435 ft | 67 kts | 86° |
| 2026-05-07 19:05 | 51.43251 | 12.24095 | 438 ft | 44 kts | 90° |
| 2026-05-07 19:05 | 51.43218 | 12.24553 | 436 ft | 39 kts | 107° |
| 2026-05-07 19:05 | 51.43146 | 12.24824 | 447 ft | 9 kts | 116° |
| 2026-05-07 19:06 | 51.43144 | 12.24828 | 447 ft | 0 kts | 115° |
| 2026-05-07 19:07 | 51.43143 | 12.24834 | 447 ft | 3 kts | 115° |
| 2026-05-07 19:07 | 51.43124 | 12.24896 | 447 ft | 9 kts | 116° |
| 2026-05-07 19:07 | 51.43082 | 12.25024 | 449 ft | 16 kts | 117° |
| 2026-05-07 19:07 | 51.43049 | 12.25100 | 449 ft | 11 kts | 139° |
| 2026-05-07 19:08 | 51.42974 | 12.25106 | 448 ft | 11 kts | 192° |
| 2026-05-07 19:08 | 51.42889 | 12.25070 | 449 ft | 13 kts | 194° |
| 2026-05-07 19:08 | 51.42789 | 12.25032 | 454 ft | 19 kts | 196° |
| 2026-05-07 19:08 | 51.42631 | 12.24974 | 464 ft | 26 kts | 192° |
| 2026-05-07 19:09 | 51.42453 | 12.24906 | 474 ft | 25 kts | 192° |
| 2026-05-07 19:09 | 51.42291 | 12.24846 | 484 ft | 22 kts | 193° |
| 2026-05-07 19:09 | 51.42156 | 12.24790 | 483 ft | 19 kts | 195° |
| 2026-05-07 19:09 | 51.42037 | 12.24741 | 491 ft | 16 kts | 193° |
| 2026-05-07 19:10 | 51.41936 | 12.24702 | 490 ft | 14 kts | 193° |
| 2026-05-07 19:10 | 51.41835 | 12.24665 | 481 ft | 13 kts | 193° |
| 2026-05-07 19:10 | 51.41745 | 12.24633 | 479 ft | 13 kts | 192° |
| 2026-05-07 19:10 | 51.41668 | 12.24571 | 478 ft | 12 kts | 235° |
| 2026-05-07 19:11 | 51.41651 | 12.24443 | 475 ft | 11 kts | 264° |
| 2026-05-07 19:11 | 51.41645 | 12.24329 | 475 ft | 9 kts | 265° |
| 2026-05-07 19:11 | 51.41641 | 12.24264 | 479 ft | 8 kts | 265° |
| 2026-05-07 19:11 | 51.41638 | 12.24150 | 478 ft | 9 kts | 266° |
| 2026-05-07 19:12 | 51.41634 | 12.24067 | 472 ft | 13 kts | 266° |
| 2026-05-07 19:12 | 51.41623 | 12.23809 | 472 ft | 21 kts | 265° |
| 2026-05-07 19:12 | 51.41611 | 12.23570 | 468 ft | 17 kts | 266° |
| 2026-05-07 19:12 | 51.41604 | 12.23431 | 465 ft | 20 kts | 264° |
| 2026-05-07 19:13 | 51.41606 | 12.23200 | 464 ft | 22 kts | 282° |
| 2026-05-07 19:13 | 51.41647 | 12.22953 | 457 ft | 25 kts | 285° |
| 2026-05-07 19:13 | 51.41696 | 12.22660 | 448 ft | 29 kts | 285° |
| 2026-05-07 19:13 | 51.41739 | 12.22409 | 430 ft | 14 kts | 283° |
| 2026-05-07 19:14 | 51.41794 | 12.22348 | 436 ft | 11 kts | 14° |
| 2026-05-07 19:14 | 51.41840 | 12.22368 | 436 ft | 2 kts | 17° |
| 2026-05-07 19:14 | 51.41847 | 12.22372 | 436 ft | 0 kts | 16° |
| 2026-05-07 19:15 | 51.41837 | 12.22411 | 436 ft | 0 kts | 15° |